Time;durP1;ratioP1;P1;durP2;ratioP2;P2;SDS_P1;SDS_P2;PMS_P1;PMS_P2;Temp;Humidity;BMP_temperature;BMP_pressure;BME280_temperature;BME280_humidity;BME280_pressure;Samples;Min_cycle;Max_cycle;Signal;HPM_P1;HPM_P2
2021/03/05 00:01:38;;;;;;;16.70;13.13;;;7.50;99.90;;;8.36;94.49;97878.47;5205025;28;20218;-60
2021/03/05 00:04:10;;;;;;;13.37;11.87;;;7.50;99.90;;;8.31;94.22;97874.75;5208583;28;20287;-59
2021/03/05 00:06:42;;;;;;;14.00;12.60;;;7.50;99.90;;;8.22;94.52;97874.13;5226405;28;20205;-58
2021/03/05 00:09:14;;;;;;;13.80;12.20;;;7.40;99.90;;;8.18;95.07;97877.25;5223886;28;20197;-58
2021/03/05 00:11:46;;;;;;;14.50;13.00;;;7.50;99.90;;;8.22;95.80;97885.19;5224559;28;20708;-60
2021/03/05 00:14:19;;;;;;;13.07;11.67;;;7.50;99.90;;;8.19;96.24;97889.22;5205756;28;20594;-60
2021/03/05 00:16:51;;;;;;;14.10;12.60;;;7.50;99.90;;;8.09;94.80;97883.47;5216317;28;20193;-60
2021/03/05 00:19:23;;;;;;;16.40;13.30;;;7.40;99.90;;;8.05;95.80;97894.25;5224072;28;20292;-60
2021/03/05 00:21:55;;;;;;;15.03;13.53;;;7.40;99.90;;;8.12;95.14;97893.88;5223175;28;20780;-60
2021/03/05 00:24:27;;;;;;;16.93;14.43;;;7.40;99.90;;;8.15;94.53;97894.88;5225832;28;20676;-60
2021/03/05 00:27:00;;;;;;;16.20;14.17;;;7.40;99.90;;;8.05;95.17;97901.88;5216655;28;20194;-60
2021/03/05 00:29:33;;;;;;;16.47;14.63;;;7.30;99.90;;;8.12;95.59;97898.06;5221513;28;20284;-60
2021/03/05 00:32:07;;;;;;;21.77;17.20;;;7.30;99.90;;;8.20;94.52;97908.78;5214670;28;20189;-60
2021/03/05 00:34:39;;;;;;;22.47;18.20;;;7.30;99.90;;;8.10;93.96;97915.81;5213359;28;20279;-60
2021/03/05 00:37:11;;;;;;;24.27;18.77;;;7.40;99.90;;;7.91;94.34;97912.81;5214477;28;20202;-60
2021/03/05 00:39:43;;;;;;;23.77;20.30;;;7.20;99.90;;;7.90;95.13;97913.59;5205694;28;20208;-60
2021/03/05 00:42:15;;;;;;;22.80;19.17;;;7.10;99.90;;;7.66;93.95;97913.66;5206489;28;20229;-60
2021/03/05 00:44:47;;;;;;;22.17;19.23;;;7.00;99.90;;;7.60;95.32;97910.69;5219756;28;20224;-60
2021/03/05 00:47:19;;;;;;;21.87;19.17;;;7.00;99.90;;;7.54;95.99;97920.44;5209846;28;20225;-60
2021/03/05 00:49:52;;;;;;;26.30;21.83;;;6.90;99.90;;;7.52;95.41;97914.34;5222949;28;20545;-60
2021/03/05 00:52:24;;;;;;;31.93;24.83;;;6.80;99.90;;;7.54;95.54;97925.53;5220010;28;20489;-60
2021/03/05 00:54:56;;;;;;;33.67;26.57;;;6.80;99.90;;;7.55;95.50;97928.94;5204620;28;20221;-60
2021/03/05 00:57:28;;;;;;;37.20;26.83;;;6.80;99.90;;;7.46;95.85;97931.72;5210187;28;20196;-60
2021/03/05 01:00:01;;;;;;;35.50;27.30;;;6.70;99.90;;;7.39;95.59;97929.56;5225479;28;20208;-60
2021/03/05 01:02:34;;;;;;;34.50;26.73;;;6.70;99.90;;;7.49;95.86;97931.06;5218260;28;20218;-60
2021/03/05 01:05:08;;;;;;;37.47;28.17;;;6.60;99.90;;;7.49;94.98;97923.44;5217176;28;20248;-60
2021/03/05 01:07:40;;;;;;;35.83;29.03;;;6.60;99.90;;;7.48;94.54;97935.28;5219349;28;20209;-59
2021/03/05 01:10:13;;;;;;;34.40;27.97;;;6.60;99.90;;;7.35;95.51;97932.63;5205928;28;20212;-60
2021/03/05 01:12:45;;;;;;;33.97;27.40;;;6.60;99.90;;;7.28;95.16;97941.50;5206242;28;20194;-60
2021/03/05 01:15:18;;;;;;;36.10;28.50;;;6.50;99.90;;;7.30;95.24;97944.16;5204613;28;20591;-60
2021/03/05 01:17:50;;;;;;;33.40;28.30;;;6.50;99.90;;;7.28;94.32;97950.78;5210999;28;20201;-60
2021/03/05 01:20:26;;;;;;;34.63;27.47;;;6.40;99.90;;;7.19;95.43;97951.91;5217717;28;20220;-60
2021/03/05 01:22:58;;;;;;;35.50;28.13;;;6.40;99.90;;;7.08;95.70;97957.88;5208536;28;20723;-60
2021/03/05 01:25:33;;;;;;;34.77;28.47;;;6.40;99.90;;;7.22;94.86;97958.88;5220542;28;20600;-60
2021/03/05 01:28:05;;;;;;;35.30;28.67;;;6.30;99.90;;;7.05;94.16;97962.72;5227517;28;20193;-60
2021/03/05 01:30:38;;;;;;;34.03;28.33;;;6.20;99.90;;;6.89;92.79;97960.72;5222175;28;20198;-60
2021/03/05 01:33:10;;;;;;;33.17;27.40;;;6.10;99.90;;;6.88;94.45;97960.63;5208220;28;20213;-60
2021/03/05 01:35:42;;;;;;;33.53;28.93;;;6.10;99.90;;;6.71;93.94;97962.81;5209419;28;20564;-60
2021/03/05 01:38:15;;;;;;;34.60;29.23;;;6.00;99.90;;;6.96;94.59;97957.88;5229462;28;20606;-60
2021/03/05 01:40:47;;;;;;;34.23;29.47;;;6.00;99.90;;;6.96;92.52;97967.16;5219544;28;20220;-60
2021/03/05 01:43:19;;;;;;;35.10;29.37;;;6.00;99.90;;;6.98;92.12;97968.13;5208108;28;20671;-60
2021/03/05 01:45:52;;;;;;;37.97;29.77;;;5.90;99.90;;;6.81;92.21;97977.09;5216067;28;20201;-60
2021/03/05 01:48:25;;;;;;;36.10;29.37;;;5.90;99.90;;;6.80;93.55;97979.50;5228969;28;20296;-60
2021/03/05 01:51:09;;;;;;;40.43;30.67;;;5.90;99.90;;;6.79;92.74;97983.72;5217432;28;20290;-60
2021/03/05 01:53:43;;;;;;;38.43;30.40;;;5.90;99.90;;;6.64;93.01;97983.47;5191320;28;20226;-60
2021/03/05 01:56:32;;;;;;;35.07;28.80;;;5.80;99.90;;;6.64;92.70;97988.56;5199021;28;20197;-60
2021/03/05 01:59:06;;;;;;;39.17;30.57;;;5.70;99.90;;;6.61;92.83;97988.31;5208313;28;20212;-60
2021/03/05 02:01:40;;;;;;;38.07;29.53;;;5.70;99.90;;;6.75;92.67;97990.22;5220583;28;20224;-59
2021/03/05 02:04:14;;;;;;;38.67;29.63;;;5.70;99.90;;;6.53;92.22;97984.31;5228094;28;20235;-60
2021/03/05 02:07:06;;;;;;;38.63;30.07;;;5.60;99.90;;;6.46;92.84;97993.13;5225459;28;20275;-59
2021/03/05 02:09:38;;;;;;;38.33;29.70;;;5.60;99.90;;;6.24;92.13;97993.19;5227497;28;20657;-60
2021/03/05 02:12:11;;;;;;;40.13;30.83;;;5.50;99.90;;;6.26;93.71;97996.69;5226818;28;20193;-59
2021/03/05 02:14:43;;;;;;;42.03;32.07;;;5.50;99.90;;;6.39;94.03;97990.03;5212491;28;20223;-60
2021/03/05 02:17:24;;;;;;;41.40;33.00;;;5.50;99.90;;;6.23;93.25;97991.38;5208688;28;20285;-60
2021/03/05 02:20:25;;;;;;;41.70;33.37;;;5.40;99.90;;;6.33;93.22;97995.53;5208780;28;20264;-58
2021/03/05 02:23:33;;;;;;;39.10;30.87;;;5.40;99.90;;;6.26;92.92;98004.31;5195776;28;20255;-60
2021/03/05 02:26:52;;;;;;;41.13;30.97;;;5.30;99.90;;;6.11;93.35;98004.81;5227041;28;20200;-60
2021/03/05 02:30:07;;;;;;;38.37;30.63;;;5.20;99.90;;;5.99;93.64;97997.16;5215314;28;20202;-60
2021/03/05 02:32:46;;;;;;;39.90;31.63;;;5.20;99.90;;;6.02;93.60;98007.53;5206224;28;20588;-59
2021/03/05 02:35:19;;;;;;;41.57;30.90;;;5.10;99.90;;;5.93;93.34;98012.78;5208348;28;20310;-60
2021/03/05 02:37:54;;;;;;;40.67;31.93;;;5.10;99.90;;;5.90;93.47;98017.59;5207245;28;20205;-60
2021/03/05 02:40:32;;;;;;;35.70;30.00;;;5.10;99.90;;;5.99;94.28;98018.31;5221846;28;20668;-60
2021/03/05 02:43:09;;;;;;;39.30;30.87;;;5.10;99.90;;;5.95;93.60;98023.94;5226540;28;20225;-60
2021/03/05 02:45:42;;;;;;;40.27;32.27;;;5.00;99.90;;;5.70;92.23;98023.66;5207173;28;20571;-59
2021/03/05 02:48:19;;;;;;;38.13;30.67;;;5.00;99.90;;;5.67;92.40;98028.47;5208127;28;20207;-60
2021/03/05 02:50:55;;;;;;;39.30;30.97;;;4.90;99.90;;;5.67;93.29;98028.47;5206848;28;20209;-60
2021/03/05 02:53:29;;;;;;;37.53;29.53;;;4.90;99.90;;;5.70;93.41;98022.75;5226241;28;20219;-59
2021/03/05 02:56:09;;;;;;;39.03;31.53;;;4.80;99.90;;;5.67;93.86;98020.00;5211942;28;20200;-60
2021/03/05 02:58:45;;;;;;;41.23;32.83;;;4.80;99.90;;;5.78;94.02;98024.22;5227449;28;20210;-60
2021/03/05 03:01:21;;;;;;;40.67;31.60;;;4.80;99.90;;;5.71;92.83;98030.47;5222302;28;20750;-60
2021/03/05 03:03:56;;;;;;;39.80;31.50;;;4.90;99.90;;;5.80;93.71;98037.91;5227199;28;20307;-60
2021/03/05 03:06:29;;;;;;;37.10;30.60;;;4.80;99.90;;;5.76;93.99;98034.25;5213544;28;20200;-60
2021/03/05 03:09:04;;;;;;;37.57;30.10;;;4.80;99.90;;;5.56;91.68;98039.44;5206681;28;20207;-58
2021/03/05 03:11:40;;;;;;;42.47;31.03;;;4.70;99.90;;;5.57;93.18;98036.09;5219656;28;20196;-60
2021/03/05 03:14:13;;;;;;;37.53;29.40;;;4.70;99.90;;;5.62;94.08;98034.84;5225645;28;20226;-60
2021/03/05 03:16:45;;;;;;;39.93;31.63;;;4.70;99.90;;;5.70;94.92;98036.31;5212226;28;20291;-60
2021/03/05 03:19:21;;;;;;;40.77;31.23;;;4.80;99.90;;;5.74;94.11;98039.97;5206519;28;20202;-59
2021/03/05 03:21:53;;;;;;;36.73;29.60;;;4.70;99.90;;;5.79;93.77;98052.25;5207132;28;20685;-60
2021/03/05 03:24:25;;;;;;;37.50;30.10;;;4.80;99.90;;;5.69;93.73;98042.13;5206676;28;20319;-59
2021/03/05 03:26:57;;;;;;;39.73;29.80;;;4.70;99.90;;;5.59;93.55;98054.88;5207737;28;20205;-58
2021/03/05 03:29:30;;;;;;;34.57;28.33;;;4.70;99.90;;;5.73;93.07;98054.31;5220924;28;20197;-60
2021/03/05 03:32:02;;;;;;;37.53;29.70;;;4.80;99.90;;;5.65;93.00;98066.38;5211407;28;20200;-60
2021/03/05 03:34:38;;;;;;;35.63;28.97;;;4.80;99.90;;;5.67;94.20;98063.97;5220428;28;20235;-60
2021/03/05 03:37:11;;;;;;;36.03;27.37;;;4.80;99.90;;;5.72;94.59;98070.28;5226584;28;20205;-60
2021/03/05 03:39:44;;;;;;;34.83;27.87;;;4.70;99.90;;;5.74;94.35;98071.28;5210808;28;20545;-60
2021/03/05 03:42:16;;;;;;;33.00;26.20;;;4.70;99.90;;;5.61;94.26;98073.63;5206979;28;20316;-60
2021/03/05 03:44:48;;;;;;;33.53;27.77;;;4.70;99.90;;;5.73;94.54;98071.19;5204075;28;20231;-60
2021/03/05 03:47:22;;;;;;;35.40;28.47;;;4.70;99.90;;;5.85;94.42;98074.69;5206100;28;20209;-60
2021/03/05 03:49:59;;;;;;;34.33;27.27;;;4.80;99.90;;;5.76;94.21;98081.56;5206080;28;20291;-60
2021/03/05 03:52:38;;;;;;;37.10;28.37;;;4.80;99.90;;;5.78;94.30;98083.47;5207142;28;20204;-60
2021/03/05 03:55:11;;;;;;;33.97;26.87;;;4.80;99.90;;;5.75;94.06;98090.84;5218122;28;20681;-60
2021/03/05 03:57:46;;;;;;;32.17;26.43;;;4.80;99.90;;;5.65;93.81;98096.81;5214219;28;20203;-58
2021/03/05 04:00:20;;;;;;;31.73;26.73;;;4.70;99.90;;;5.63;94.59;98107.59;5209798;28;20198;-60
2021/03/05 04:02:55;;;;;;;33.03;26.53;;;4.80;99.90;;;5.71;95.38;98096.41;5185287;28;20544;-60
2021/03/05 04:05:33;;;;;;;31.93;25.53;;;4.80;99.90;;;5.78;95.16;98093.59;5223327;28;20213;-60
2021/03/05 04:08:10;;;;;;;33.17;25.87;;;4.80;99.90;;;5.81;94.17;98093.84;5226122;28;20199;-60
2021/03/05 04:10:42;;;;;;;34.40;27.13;;;4.80;99.90;;;5.77;94.38;98099.41;5207787;28;20210;-59
2021/03/05 04:13:16;;;;;;;33.87;25.93;;;4.80;99.90;;;5.75;94.32;98090.84;5216761;28;20200;-59
2021/03/05 04:15:49;;;;;;;30.40;25.27;;;4.80;99.90;;;5.67;93.54;98104.53;5222694;28;20196;-60
2021/03/05 04:18:31;;;;;;;31.77;26.50;;;4.80;99.90;;;5.67;94.56;98089.34;5205372;28;20198;-59
2021/03/05 04:21:07;;;;;;;33.23;26.33;;;4.80;99.90;;;5.72;94.07;98095.63;5222916;28;20198;-59
2021/03/05 04:23:39;;;;;;;31.23;25.07;;;4.70;99.90;;;5.73;93.87;98088.94;5224067;28;20218;-60
2021/03/05 04:26:11;;;;;;;32.97;26.23;;;4.80;99.90;;;5.72;94.41;98103.22;5226104;28;20300;-60
2021/03/05 04:28:44;;;;;;;35.63;27.37;;;4.80;99.90;;;5.65;94.18;98106.94;5207460;28;20667;-60
2021/03/05 04:31:16;;;;;;;34.63;27.20;;;4.70;99.90;;;5.68;95.02;98111.38;5208785;28;20197;-59
2021/03/05 04:33:48;;;;;;;33.27;27.07;;;4.80;99.90;;;5.76;94.83;98105.28;5221607;28;20729;-60
2021/03/05 04:36:21;;;;;;;31.73;25.63;;;4.80;99.90;;;5.71;94.22;98111.63;5224742;28;20196;-60
2021/03/05 04:39:08;;;;;;;30.50;26.07;;;4.70;99.90;;;5.74;94.38;98111.84;5205240;28;20331;-60
2021/03/05 04:41:40;;;;;;;31.47;26.17;;;4.80;99.90;;;5.74;94.34;98116.94;5212976;28;20225;-60
2021/03/05 04:44:13;;;;;;;31.67;25.77;;;4.70;99.90;;;5.68;93.43;98121.53;5225157;28;20220;-60
2021/03/05 04:46:45;;;;;;;29.63;24.53;;;4.70;99.90;;;5.65;93.16;98124.69;5219526;28;20211;-59
2021/03/05 04:49:17;;;;;;;30.23;25.10;;;4.60;99.90;;;5.58;93.59;98121.53;5219233;28;20646;-59
2021/03/05 04:51:50;;;;;;;31.10;25.10;;;4.70;99.90;;;5.57;94.08;98124.84;5195161;28;20618;-60
2021/03/05 04:54:22;;;;;;;32.20;25.70;;;4.70;99.90;;;5.54;94.67;98122.06;5202322;28;20277;-60
2021/03/05 04:56:56;;;;;;;31.37;26.87;;;4.70;99.90;;;5.41;93.36;98126.16;5212007;28;20227;-59
2021/03/05 04:59:28;;;;;;;30.57;24.47;;;4.60;99.90;;;5.41;94.61;98121.09;5211570;28;20274;-60
2021/03/05 05:02:00;;;;;;;34.20;26.93;;;4.60;99.90;;;5.50;94.66;98125.13;5218006;28;20225;-59
2021/03/05 05:04:33;;;;;;;32.27;25.87;;;4.60;99.90;;;5.56;94.92;98118.91;5217540;28;20233;-59
2021/03/05 05:07:06;;;;;;;29.67;25.93;;;4.60;99.90;;;5.45;93.55;98117.13;5226719;28;20212;-59
2021/03/05 05:09:38;;;;;;;30.63;24.40;;;4.60;99.90;;;5.33;92.83;98123.75;5231985;28;20203;-59
2021/03/05 05:12:10;;;;;;;34.60;27.50;;;4.50;99.90;;;5.30;93.60;98126.94;5215005;28;20195;-59
2021/03/05 05:14:42;;;;;;;30.10;25.20;;;4.50;99.90;;;5.38;94.26;98136.03;5213914;28;20224;-59
2021/03/05 05:17:14;;;;;;;29.70;25.40;;;4.50;99.90;;;5.50;94.68;98135.28;5231948;28;20203;-60
2021/03/05 05:19:46;;;;;;;29.63;24.60;;;4.60;99.90;;;5.52;94.09;98133.72;5217164;28;20618;-59
2021/03/05 05:22:19;;;;;;;28.97;23.70;;;4.60;99.90;;;5.56;94.42;98139.19;5215804;28;20216;-60
2021/03/05 05:24:51;;;;;;;30.10;24.97;;;4.60;99.90;;;5.62;93.57;98136.25;5215312;28;20768;-59
2021/03/05 05:27:23;;;;;;;28.90;23.83;;;4.60;99.90;;;5.51;93.29;98148.06;5192143;28;20195;-59
2021/03/05 05:29:56;;;;;;;30.10;23.90;;;4.60;99.90;;;5.55;93.68;98145.03;5192242;28;20206;-59
2021/03/05 05:32:28;;;;;;;21.50;17.63;;;4.70;99.90;;;5.56;92.92;98150.97;5196132;28;20578;-60
2021/03/05 05:35:00;;;;;;;16.93;13.47;;;4.70;99.90;;;5.48;92.38;98154.53;5222862;28;20256;-60
2021/03/05 05:37:33;;;;;;;13.90;12.50;;;4.60;99.90;;;5.28;91.13;98155.44;5210727;28;20206;-59
2021/03/05 05:40:08;;;;;;;12.13;10.83;;;4.60;99.90;;;5.16;90.78;98158.72;5214940;28;20720;-59
2021/03/05 05:42:40;;;;;;;11.67;10.30;;;4.40;99.90;;;5.22;90.90;98160.00;5213179;28;20423;-59
2021/03/05 05:45:13;;;;;;;11.87;10.57;;;4.40;99.90;;;5.20;91.27;98162.41;5231698;28;20715;-59
2021/03/05 05:47:47;;;;;;;12.07;10.87;;;4.40;99.90;;;5.12;90.91;98163.41;5227932;28;20695;-59
2021/03/05 05:50:19;;;;;;;11.27;10.07;;;4.40;99.90;;;5.10;90.77;98170.91;5232070;28;20277;-60
2021/03/05 05:52:55;;;;;;;11.40;9.73;;;4.30;99.90;;;5.13;89.77;98168.63;5214589;28;20292;-59
2021/03/05 05:55:27;;;;;;;11.10;9.73;;;4.30;99.90;;;4.85;88.27;98165.44;5209238;28;20221;-59
2021/03/05 05:58:01;;;;;;;11.57;10.37;;;4.20;99.90;;;4.79;89.98;98179.22;5210006;28;20213;-60
2021/03/05 06:00:33;;;;;;;11.90;10.00;;;4.10;99.90;;;4.74;90.57;98176.28;5216789;28;20220;-59
2021/03/05 06:03:08;;;;;;;12.20;10.83;;;4.10;99.90;;;4.80;91.95;98181.00;5215507;28;20219;-60
2021/03/05 06:05:40;;;;;;;12.07;10.33;;;4.10;99.90;;;4.76;90.78;98187.44;5218622;28;20196;-60
2021/03/05 06:08:13;;;;;;;11.73;10.53;;;4.10;99.90;;;4.73;89.50;98189.72;5228643;28;20571;-59
2021/03/05 06:10:45;;;;;;;11.83;10.20;;;4.00;99.90;;;4.74;88.63;98186.41;5219206;28;20308;-59
2021/03/05 06:13:17;;;;;;;11.27;9.80;;;4.10;99.90;;;4.67;88.58;98199.34;5229523;28;20195;-60
2021/03/05 06:16:14;;;;;;;12.00;9.70;;;3.90;99.90;;;4.66;90.09;98200.94;5220957;28;20204;-59
2021/03/05 06:18:47;;;;;;;12.53;10.23;;;4.00;99.90;;;4.72;91.27;98204.03;5231678;28;20461;-60
2021/03/05 06:21:36;;;;;;;12.73;10.70;;;4.00;99.90;;;4.78;90.71;98208.72;5224142;28;20205;-59
2021/03/05 06:24:10;;;;;;;12.63;10.73;;;4.00;99.90;;;4.81;91.29;98209.00;5192650;28;20660;-60
2021/03/05 06:26:50;;;;;;;12.83;10.70;;;4.10;99.90;;;4.89;91.52;98209.63;5218219;28;20212;-60
2021/03/05 06:29:24;;;;;;;13.40;10.80;;;4.10;99.90;;;4.87;90.93;98224.69;5217891;28;20284;-59
2021/03/05 06:32:00;;;;;;;13.47;11.20;;;4.10;99.90;;;4.84;90.46;98224.44;5211576;28;20205;-60
2021/03/05 06:34:46;;;;;;;12.40;10.40;;;4.00;99.90;;;4.86;90.14;98233.03;5225159;28;20669;-60
2021/03/05 06:37:20;;;;;;;12.90;10.53;;;4.00;99.90;;;4.79;89.19;98228.22;5216231;28;20668;-60
2021/03/05 06:39:59;;;;;;;12.90;10.43;;;4.00;99.90;;;4.81;90.38;98231.78;5230535;28;20202;-60
2021/03/05 06:42:47;;;;;;;12.90;10.93;;;4.10;99.90;;;4.85;90.83;98241.41;5217045;28;20658;-60
2021/03/05 06:45:24;;;;;;;13.73;10.90;;;4.10;99.90;;;4.87;90.78;98244.06;5203665;28;20218;-60
2021/03/05 06:48:01;;;;;;;13.23;10.77;;;4.10;99.90;;;4.90;91.01;98250.28;5190288;28;20201;-60
2021/03/05 06:50:35;;;;;;;13.43;10.73;;;4.10;99.90;;;4.86;90.01;98248.22;5214003;28;20190;-60
2021/03/05 06:53:28;;;;;;;13.87;11.03;;;4.00;99.90;;;4.86;90.68;98260.88;5210771;28;20201;-60
2021/03/05 06:56:01;;;;;;;12.70;9.70;;;4.00;99.90;;;4.76;89.22;98268.47;5220082;28;20210;-60
2021/03/05 06:58:34;;;;;;;11.67;10.43;;;4.00;99.90;;;4.79;90.34;98268.72;5215306;28;20225;-60
2021/03/05 07:01:06;;;;;;;12.03;10.73;;;3.90;99.90;;;4.81;90.00;98261.25;5217544;28;20206;-59
2021/03/05 07:03:38;;;;;;;12.03;10.40;;;3.90;99.90;;;4.82;90.41;98274.06;5208942;28;20217;-59
2021/03/05 07:06:17;;;;;;;11.60;10.37;;;4.00;99.90;;;4.81;90.55;98273.91;5209399;28;20198;-59
2021/03/05 07:08:49;;;;;;;13.43;10.53;;;4.00;99.90;;;4.86;91.32;98268.47;5208649;28;20288;-59
2021/03/05 07:11:36;;;;;;;13.03;10.57;;;4.10;99.90;;;4.87;90.80;98282.94;5212164;28;20698;-59
2021/03/05 07:14:11;;;;;;;13.70;10.40;;;4.10;99.90;;;4.79;89.52;98280.50;5228170;28;20218;-59
2021/03/05 07:16:46;;;;;;;13.60;11.50;;;4.00;99.90;;;4.84;90.19;98289.41;5221132;28;20205;-59
2021/03/05 07:19:22;;;;;;;13.40;11.20;;;4.00;99.90;;;4.88;91.01;98297.38;5218786;28;20283;-59
2021/03/05 07:21:56;;;;;;;13.57;10.80;;;4.10;99.90;;;4.86;90.19;98291.28;5217074;28;20203;-57
2021/03/05 07:24:31;;;;;;;13.77;11.70;;;4.10;99.90;;;4.87;90.83;98293.06;5213668;28;20666;-57
2021/03/05 07:27:07;;;;;;;12.77;11.17;;;4.10;99.90;;;4.93;89.43;98301.19;5214480;28;20230;-58
2021/03/05 07:29:43;;;;;;;12.70;10.80;;;4.00;99.90;;;4.92;90.37;98307.03;5228469;28;20237;-57
2021/03/05 07:32:18;;;;;;;13.07;11.03;;;4.10;99.90;;;4.96;90.49;98308.16;5215496;28;20217;-59
2021/03/05 07:34:58;;;;;;;13.90;11.27;;;4.10;99.90;;;4.92;90.43;98307.03;5220163;28;20229;-59
2021/03/05 07:37:32;;;;;;;16.90;12.97;;;4.10;99.90;;;5.04;90.43;98309.72;5200405;28;20674;-59
2021/03/05 07:40:09;;;;;;;14.23;12.07;;;4.20;99.90;;;5.02;90.50;98317.94;5208494;28;20201;-57
2021/03/05 07:42:43;;;;;;;14.60;11.77;;;4.20;99.90;;;5.04;90.70;98324.03;5187762;28;20624;-59
2021/03/05 07:45:16;;;;;;;13.60;12.00;;;4.20;99.90;;;5.00;90.21;98324.50;5208626;28;20224;-59
2021/03/05 07:47:51;;;;;;;16.33;12.53;;;4.20;99.90;;;5.00;89.75;98327.91;5211546;28;20204;-59
2021/03/05 07:50:26;;;;;;;16.03;12.83;;;4.20;99.90;;;5.00;90.32;98325.38;5221519;28;20723;-57
2021/03/05 07:52:59;;;;;;;15.40;12.83;;;4.20;99.90;;;5.08;90.36;98331.13;5207535;28;20547;-59
2021/03/05 07:55:36;;;;;;;16.97;13.00;;;4.30;99.90;;;5.12;89.53;98329.00;5217969;28;20293;-59
2021/03/05 07:58:10;;;;;;;16.33;12.23;;;4.30;99.90;;;5.21;89.21;98328.88;5219197;28;20205;-59
2021/03/05 08:00:48;;;;;;;16.00;12.37;;;4.30;99.90;;;5.19;89.45;98335.47;5226172;28;20539;-59
2021/03/05 08:03:24;;;;;;;17.60;13.27;;;4.30;99.90;;;5.23;89.43;98345.09;5216798;28;20258;-59
2021/03/05 08:05:59;;;;;;;16.50;12.57;;;4.40;99.90;;;5.21;89.54;98341.56;5205482;28;20235;-56
2021/03/05 08:08:32;;;;;;;15.80;12.57;;;4.40;99.90;;;5.21;89.20;98346.63;5216555;28;20202;-59
2021/03/05 08:11:04;;;;;;;16.43;13.77;;;4.40;99.90;;;5.25;88.71;98356.25;5219588;28;20196;-56
2021/03/05 08:13:49;;;;;;;17.63;11.97;;;4.40;99.90;;;5.30;88.15;98355.00;5229811;28;20234;-60
2021/03/05 08:16:46;;;;;;;17.37;12.67;;;4.40;99.90;;;5.26;88.19;98362.19;5223442;28;20279;-60
2021/03/05 08:19:49;;;;;;;19.50;14.47;;;4.50;99.90;;;5.25;88.67;98365.50;5198378;28;20241;-59
2021/03/05 08:22:21;;;;;;;17.87;13.23;;;4.50;99.90;;;5.28;88.29;98376.78;5216898;28;20225;-59
2021/03/05 08:25:22;;;;;;;17.30;14.03;;;4.40;99.90;;;5.23;88.36;98370.44;5210956;28;20214;-59
2021/03/05 08:27:55;;;;;;;20.07;14.57;;;4.40;99.90;;;5.35;85.86;98368.97;5223020;28;20224;-59
2021/03/05 08:30:43;;;;;;;20.27;14.43;;;4.40;99.90;;;5.21;85.37;98377.03;5207671;28;20572;-60
2021/03/05 08:33:27;;;;;;;19.57;15.03;;;4.40;99.90;;;5.14;86.53;98382.31;5199562;28;20201;-61
2021/03/05 08:36:00;;;;;;;19.40;14.37;;;4.40;99.90;;;5.12;84.93;98383.81;5214832;28;20191;-58
2021/03/05 08:38:35;;;;;;;19.07;16.23;;;4.30;99.90;;;5.16;85.96;98380.81;5223056;28;20657;-59
2021/03/05 08:41:24;;;;;;;23.13;15.90;;;4.40;99.90;;;5.23;85.53;98389.81;5212660;28;20776;-60
2021/03/05 08:44:07;;;;;;;21.73;16.27;;;4.40;99.90;;;5.21;85.54;98382.09;5209902;28;20243;-59
2021/03/05 08:46:40;;;;;;;19.80;15.40;;;4.40;99.90;;;5.25;86.36;98390.84;5207678;28;20205;-60
2021/03/05 08:49:12;;;;;;;20.10;15.23;;;4.50;99.90;;;5.30;86.56;98395.56;5204590;28;20546;-59
2021/03/05 08:51:46;;;;;;;21.50;16.37;;;4.50;99.90;;;5.31;86.39;98387.19;5207572;28;20207;-60
2021/03/05 08:54:18;;;;;;;21.30;16.20;;;4.60;99.90;;;5.37;86.57;98395.31;5214212;28;20223;-60
2021/03/05 08:56:54;;;;;;;21.33;15.77;;;4.60;99.90;;;5.52;86.88;98392.31;5215694;28;20197;-59
2021/03/05 08:59:26;;;;;;;21.67;15.63;;;4.70;99.90;;;5.68;86.61;98384.34;5219073;28;20199;-60
2021/03/05 09:02:12;;;;;;;18.83;14.63;;;4.80;99.90;;;5.73;84.99;98394.13;5206600;28;20202;-59
2021/03/05 09:04:44;;;;;;;19.27;14.97;;;4.80;99.90;;;5.66;84.92;98386.75;5211674;28;20230;-59
2021/03/05 09:07:16;;;;;;;19.37;15.43;;;4.80;99.90;;;5.80;84.49;98396.41;5212605;28;20591;-59
2021/03/05 09:09:50;;;;;;;18.53;14.90;;;4.80;99.90;;;5.78;83.61;98403.03;5204618;28;21016;-59
2021/03/05 09:12:23;;;;;;;20.10;15.13;;;4.80;99.90;;;5.86;84.20;98396.91;5214171;28;20678;-57
2021/03/05 09:15:03;;;;;;;18.97;15.00;;;4.90;99.90;;;6.00;82.75;98395.56;5213146;28;20705;-58
2021/03/05 09:17:35;;;;;;;19.03;15.30;;;5.00;99.90;;;5.88;82.07;98407.22;5210047;28;20192;-58
2021/03/05 09:20:08;;;;;;;17.07;13.73;;;4.90;99.90;;;5.91;82.27;98398.97;5216718;28;20660;-58
2021/03/05 09:22:41;;;;;;;19.30;14.23;;;5.00;99.90;;;5.87;81.79;98402.91;5194275;28;20611;-60
2021/03/05 09:25:14;;;;;;;18.47;14.53;;;4.90;99.90;;;5.86;82.55;98412.13;5206569;28;20296;-59
2021/03/05 09:27:46;;;;;;;18.40;13.83;;;4.90;99.90;;;5.87;82.28;98411.41;5196969;28;20692;-59
2021/03/05 09:30:20;;;;;;;18.23;13.87;;;4.90;99.90;;;5.87;80.96;98419.00;5206816;28;20209;-60
2021/03/05 09:32:55;;;;;;;19.60;15.07;;;4.90;99.90;;;5.78;81.00;98413.16;5205610;28;20197;-60
2021/03/05 09:35:30;;;;;;;18.77;15.10;;;4.90;99.90;;;5.86;82.06;98407.06;5212602;28;20325;-59
2021/03/05 09:38:02;;;;;;;18.00;14.83;;;4.90;99.90;;;5.96;82.18;98412.97;5218901;28;20200;-58
2021/03/05 09:40:35;;;;;;;18.73;15.10;;;5.10;99.90;;;6.04;82.66;98417.03;5214864;28;20296;-60
2021/03/05 09:43:16;;;;;;;19.00;15.10;;;5.10;99.90;;;5.84;81.13;98415.34;5218694;28;20217;-58
2021/03/05 09:45:50;;;;;;;17.30;14.23;;;5.00;99.90;;;5.97;81.97;98418.16;5211940;28;20197;-60
2021/03/05 09:48:32;;;;;;;16.40;14.30;;;5.10;99.90;;;5.94;81.78;98420.44;5221942;28;20215;-60
2021/03/05 09:51:07;;;;;;;17.17;13.93;;;5.10;99.90;;;6.00;81.34;98423.47;5227135;28;20203;-59
2021/03/05 09:53:50;;;;;;;18.60;13.53;;;5.00;99.90;;;6.00;79.82;98428.56;5221064;28;20761;-58
2021/03/05 09:56:24;;;;;;;17.63;14.00;;;5.10;99.90;;;5.84;78.71;98425.47;5218089;28;20224;-60
2021/03/05 09:58:59;;;;;;;18.23;14.77;;;5.00;99.90;;;5.81;79.72;98432.84;5219657;28;20194;-59
2021/03/05 10:01:33;;;;;;;19.40;13.33;;;4.90;99.90;;;5.72;80.30;98443.06;5207602;28;20193;-60
2021/03/05 10:04:06;;;;;;;17.00;13.87;;;4.90;99.90;;;5.79;81.12;98455.50;5214862;28;20227;-59
2021/03/05 10:06:39;;;;;;;18.20;14.43;;;5.00;99.90;;;5.81;81.21;98448.94;5224905;28;20291;-60
2021/03/05 10:09:15;;;;;;;18.00;14.43;;;5.00;99.90;;;5.86;80.81;98437.50;5217008;28;20230;-60
2021/03/05 10:11:47;;;;;;;18.57;14.37;;;5.00;99.90;;;5.91;78.94;98444.63;5212321;28;20210;-61
2021/03/05 10:14:23;;;;;;;17.00;14.00;;;5.00;99.90;;;5.88;80.55;98445.25;5214784;28;20221;-61
2021/03/05 10:17:08;;;;;;;18.70;15.17;;;5.00;99.90;;;5.91;80.56;98444.63;5221475;28;20209;-61
2021/03/05 10:19:42;;;;;;;17.77;14.10;;;5.00;99.90;;;5.93;80.19;98448.19;5209748;28;20198;-61
2021/03/05 10:22:14;;;;;;;20.57;15.40;;;5.00;99.90;;;6.01;80.41;98455.72;5205740;28;20194;-60
2021/03/05 10:24:46;;;;;;;16.40;13.90;;;5.00;99.90;;;6.13;79.61;98452.44;5210087;28;20221;-60
2021/03/05 10:27:19;;;;;;;15.93;14.23;;;5.10;99.90;;;6.10;79.48;98450.53;5212286;28;20205;-58
2021/03/05 10:29:56;;;;;;;17.60;14.50;;;5.20;99.90;;;6.12;80.03;98454.06;5195276;28;20198;-59
2021/03/05 10:32:32;;;;;;;16.73;13.10;;;5.30;99.90;;;6.01;78.35;98453.19;5208779;28;20197;-58
2021/03/05 10:35:09;;;;;;;15.97;13.30;;;5.20;99.90;;;6.04;79.12;98457.63;5213227;28;20232;-58
2021/03/05 10:37:43;;;;;;;16.10;13.33;;;5.10;99.90;;;5.94;77.66;98470.28;5208249;28;20204;-59
2021/03/05 10:40:16;;;;;;;16.27;13.77;;;5.00;99.90;;;5.80;78.92;98475.03;5217150;28;20193;-59
2021/03/05 10:42:48;;;;;;;16.93;12.87;;;5.00;99.90;;;5.83;80.08;98471.88;5208724;28;20228;-59
2021/03/05 10:45:20;;;;;;;15.53;13.33;;;5.00;99.90;;;5.77;80.62;98477.31;5218019;28;20225;-60
2021/03/05 10:47:53;;;;;;;16.33;13.67;;;4.90;99.90;;;5.83;79.59;98474.41;5208251;28;20197;-60
2021/03/05 10:50:26;;;;;;;15.40;13.30;;;5.00;99.90;;;5.83;80.48;98477.84;5206967;28;20309;-60
2021/03/05 10:52:58;;;;;;;17.70;13.80;;;5.00;99.90;;;5.85;79.61;98481.41;5186008;28;20203;-61
2021/03/05 10:55:30;;;;;;;16.30;13.20;;;5.00;99.90;;;5.84;80.63;98483.81;5192607;28;20221;-60